Solms, Texas
Current Conditions -  °F | °C
As of 7:51 PM on Saturday 20 Dec 2014 (Local Time) from KBAZ Reporting Station
Overcast Overcast  
Wind Chill: 53°   Ceiling: 2900
Heat Index: 53°   Visibility: 10mi
Dew Point: 47°   Wind: 6mph
Humidity: 80%   Direction: 80°E
Pressure: 30.16"   Gusts: NA
Location:  29.6944°N, 98.0725°W
Report Text: KBAZ 210151Z AUTO 08005KT 10SM OVC029 12/08 A3016 RMK AO2 SLP211 T01170083
Loading
Personal Weather Stations






























Interactive Weather Map New forecast layout! Learn more

10-Day Weather Forecast

Advertisements
Track Severe Weather on mobile